hwlogo.jpg (8581 bytes)
Home Your Weather Products Services Weather On Your Site Contact
HW Version Logo
Weather Info
Your Weather (Options)
Canadian Weather
International Weather
Enter your " Place, State", US Zip Code or ICAO:  
Forecast Information Radar Information
Waterloo Well, Canada  Lat: 43.47N, Lon: 80.38W
ICAO Used: CYKF
Current Conditions
Updated: 11:00 AM GMT-7 THU FEB 22 2018
Sun & Moon Information
Overcast
Overcast
Temp: 0°C
Humidity: 80%
Wind Speed: E 9 MPH
Barometer: 1036 mb
Dewpoint: -3°C
Heat Index: 0°C
Wind Chill: -4°C
Civil Twilight: 4:42 AM GMT-7 Moon Phase:
Waxing Gibbous Moon
Sunrise: 5:11 AM GMT-7
Sunset: 3:58 PM GMT-7
Civil Twilight: 4:27 PM GMT-7
Forecast for Waterloo Well, Canada:
(Forecast based on TAF for )
0500 PM GMT-7 WED FEB 21 2018
  
AFTERNOON EVENING OVERNIGHT
Fog
ZoneCast:
Dated: 0500 PM GMT-7 WED FEB 21 2018
Afternoon...A 30 percent chance to fog.

Evening...A percent chance to .

Overnight...A percent chance to .

Original Encoded TAF:
Dated: 0500 PM GMT-7 WED FEB 21 2018
2018/02/22 23:21
TAF 
      AMD CYKF 202331Z 2023/2108 20012KT WS010/22040KT 2SM BR OVC004 
      TEMPO 2023/2108 6SM -RA BR OVC008 PROB30 2023/2108 1/4SM FG VV001 
      RMK FCST BASED ON AUTO OBS. NXT FCST BY 210200Z